Time;durP1;ratioP1;P1;durP2;ratioP2;P2;SDS_P1;SDS_P2;PMS_P1;PMS_P2;Temp;Humidity;BMP_temperature;BMP_pressure;BME280_temperature;BME280_humidity;BME280_pressure;Samples;Min_cycle;Max_cycle;Signal;HPM_P1;HPM_P2
2022/10/17 00:01:38;;;;;;;;;;;;;;;20.93;39.19;100363.41;4514856;31;33519;-89
2022/10/17 00:04:05;;;;;;;;;;;;;;;20.90;39.21;100372.19;4514791;31;34972;-89
2022/10/17 00:06:32;;;;;;;;;;;;;;;20.94;39.20;100374.81;4508514;31;35353;-92
2022/10/17 00:09:00;;;;;;;;;;;;;;;20.72;39.68;100379.41;4499288;31;35048;-90
2022/10/17 00:11:27;;;;;;;;;;;;;;;20.67;39.79;100370.69;4515302;31;33505;-91
2022/10/17 00:13:54;;;;;;;;;;;;;;;20.82;39.39;100366.13;4514162;31;34141;-91
2022/10/17 00:16:26;;;;;;;;;;;;;;;20.77;39.51;100367.97;4512278;31;35293;-92
2022/10/17 00:18:53;;;;;;;;;;;;;;;20.94;39.09;100366.91;4504936;31;34998;-90
2022/10/17 00:21:21;;;;;;;;;;;;;;;20.85;39.22;100373.16;4498535;31;33134;-91
2022/10/17 00:23:48;;;;;;;;;;;;;;;20.86;39.10;100367.84;4505629;31;34863;-90
2022/10/17 00:26:15;;;;;;;;;;;;;;;20.76;39.25;100368.84;4514183;31;34285;-90
2022/10/17 00:28:46;;;;;;;;;;;;;;;20.77;39.38;100377.62;4515156;31;33442;-89
2022/10/17 00:31:14;;;;;;;;;;;;;;;20.67;39.47;100374.19;4505035;31;34247;-90
2022/10/17 00:33:42;;;;;;;;;;;;;;;20.38;40.02;100374.41;4500750;31;34569;-90
2022/10/17 00:36:12;;;;;;;;;;;;;;;20.68;39.56;100378.56;4502853;31;35109;-91
2022/10/17 00:38:40;;;;;;;;;;;;;;;20.70;39.39;100373.31;4497234;31;33264;-91
2022/10/17 00:41:08;;;;;;;;;;;;;;;20.70;39.24;100379.44;4507577;31;34463;-91
2022/10/17 00:43:52;;;;;;;;;;;;;;;20.64;39.33;100382.13;4497085;31;35567;-88
2022/10/17 00:46:45;;;;;;;;;;;;;;;20.80;39.03;100381.12;4501265;31;33345;-91
2022/10/17 00:49:12;;;;;;;;;;;;;;;20.77;38.90;100382.91;4501721;31;33457;-90
2022/10/17 00:51:40;;;;;;;;;;;;;;;20.73;38.94;100374.16;4513867;31;33139;-90
2022/10/17 00:54:08;;;;;;;;;;;;;;;20.72;39.00;100371.50;4513314;31;35053;-92
2022/10/17 00:56:35;;;;;;;;;;;;;;;20.74;38.84;100375.87;4500342;31;35372;-91
2022/10/17 00:59:03;;;;;;;;;;;;;;;20.76;38.73;100370.59;4508567;31;34239;-92
2022/10/17 01:01:36;;;;;;;;;;;;;;;20.71;38.80;100370.62;4507178;31;33148;-91
2022/10/17 01:04:04;;;;;;;;;;;;;;;20.54;39.34;100372.56;4501666;31;35219;-91
2022/10/17 01:06:31;;;;;;;;;;;;;;;20.68;38.96;100368.03;4498886;31;34291;-87
2022/10/17 01:08:58;;;;;;;;;;;;;;;20.74;38.80;100367.97;4514255;31;33853;-91
2022/10/17 01:11:35;;;;;;;;;;;;;;;20.58;39.15;100366.37;4505220;31;33829;-91
2022/10/17 01:14:05;;;;;;;;;;;;;;;20.75;38.75;100368.84;4512148;31;34341;-92
2022/10/17 01:16:38;;;;;;;;;;;;;;;20.52;39.13;100366.44;4501388;31;34483;-91
2022/10/17 01:19:32;;;;;;;;;;;;;;;20.48;39.35;100370.81;4503134;31;33790;-90
2022/10/17 01:22:10;;;;;;;;;;;;;;;20.19;39.96;100368.41;4491482;31;33640;-94
2022/10/17 01:24:47;;;;;;;;;;;;;;;20.34;39.88;100376.22;4511931;31;34813;-89
2022/10/17 01:27:33;;;;;;;;;;;;;;;20.51;39.54;100380.50;4513206;31;35254;-91
2022/10/17 01:30:04;;;;;;;;;;;;;;;20.33;39.61;100377.06;4513726;31;32441;-94
2022/10/17 01:32:38;;;;;;;;;;;;;;;20.42;39.54;100377.03;4504760;31;34420;-92
2022/10/17 01:35:06;;;;;;;;;;;;;;;20.38;39.64;100374.41;4501048;31;33954;-91
2022/10/17 01:37:39;;;;;;;;;;;;;;;20.26;39.80;100366.59;4514043;31;33851;-93
2022/10/17 01:40:09;;;;;;;;;;;;;;;20.49;39.52;100358.50;4505807;31;33997;-91
2022/10/17 01:42:50;;;;;;;;;;;;;;;20.56;39.33;100362.87;4513144;31;32813;-92
2022/10/17 01:45:37;;;;;;;;;;;;;;;20.54;39.12;100357.62;4504842;31;35444;-93
2022/10/17 01:48:06;;;;;;;;;;;;;;;20.40;39.32;100362.09;4502768;31;34154;-93
2022/10/17 01:50:35;;;;;;;;;;;;;;;20.51;39.33;100356.78;4510114;31;33818;-91
2022/10/17 01:53:04;;;;;;;;;;;;;;;20.31;39.69;100360.44;4514053;31;34091;-90
2022/10/17 01:55:33;;;;;;;;;;;;;;;20.37;39.58;100368.25;4512026;31;35082;-93
2022/10/17 01:58:03;;;;;;;;;;;;;;;20.54;39.20;100368.16;4513613;31;33962;-90
2022/10/17 02:00:31;;;;;;;;;;;;;;;20.53;39.07;100363.81;4506907;31;34370;-93
2022/10/17 02:02:59;;;;;;;;;;;;;;;20.63;38.76;100369.84;4511318;31;32943;-92
2022/10/17 02:05:34;;;;;;;;;;;;;;;20.53;38.79;100373.44;4504287;31;34658;-92
2022/10/17 02:08:02;;;;;;;;;;;;;;;20.51;38.76;100370.81;4502132;31;35419;-92
2022/10/17 02:10:29;;;;;;;;;;;;;;;20.51;38.81;100373.47;4515703;31;33968;-91
2022/10/17 02:12:59;;;;;;;;;;;;;;;20.44;38.99;100370.88;4515905;31;33084;-92
2022/10/17 02:15:33;;;;;;;;;;;;;;;20.53;38.74;100368.16;4507966;31;34049;-91
2022/10/17 02:18:09;;;;;;;;;;;;;;;20.54;38.63;100372.56;4503794;31;34414;-92
2022/10/17 02:20:39;;;;;;;;;;;;;;;20.41;38.87;100374.38;4514855;31;33948;-93
2022/10/17 02:23:08;;;;;;;;;;;;;;;20.31;38.93;100376.22;4513862;31;33993;-90
2022/10/17 02:25:40;;;;;;;;;;;;;;;20.35;39.02;100372.69;4507232;31;33923;-89
2022/10/17 02:28:20;;;;;;;;;;;;;;;20.36;39.09;100379.69;4513576;31;35240;-93
2022/10/17 02:30:48;;;;;;;;;;;;;;;20.30;38.94;100379.72;4509386;31;33891;-94
2022/10/17 02:33:17;;;;;;;;;;;;;;;20.25;39.03;100368.38;4516076;31;32999;-92
2022/10/17 02:35:46;;;;;;;;;;;;;;;20.16;39.23;100373.72;4506710;31;34363;-92
2022/10/17 02:38:14;;;;;;;;;;;;;;;20.09;39.38;100379.91;4514739;31;34237;-92
2022/10/17 02:40:41;;;;;;;;;;;;;;;20.12;39.14;100378.12;4503445;31;35254;-93
2022/10/17 02:43:08;;;;;;;;;;;;;;;20.02;39.51;100378.19;4501941;31;34010;-90
2022/10/17 02:45:36;;;;;;;;;;;;;;;19.89;39.81;100380.91;4514457;31;34445;-92
2022/10/17 02:48:04;;;;;;;;;;;;;;;19.79;40.08;100387.09;4514201;31;34100;-91
2022/10/17 02:50:50;;;;;;;;;;;;;;;19.93;39.89;100385.25;4504715;31;33881;-92
2022/10/17 02:53:23;;;;;;;;;;;;;;;19.81;40.28;100389.69;4515350;31;33076;-93
2022/10/17 02:55:52;;;;;;;;;;;;;;;19.92;40.04;100386.13;4508727;31;34368;-93
2022/10/17 02:58:21;;;;;;;;;;;;;;;19.82;40.16;100392.34;4501768;31;34943;-93
2022/10/17 03:00:48;;;;;;;;;;;;;;;19.81;40.17;100403.75;4502155;31;34325;-93
2022/10/17 03:03:23;;;;;;;;;;;;;;;19.86;40.00;100399.34;4501988;31;34276;-93
2022/10/17 03:05:51;;;;;;;;;;;;;;;19.85;39.99;100399.31;4504861;31;34217;-94
2022/10/17 03:08:20;;;;;;;;;;;;;;;19.91;39.92;100405.44;4505206;31;34381;-92
2022/10/17 03:10:47;;;;;;;;;;;;;;;19.78;40.36;100398.50;4515524;31;34257;-93
2022/10/17 03:13:15;;;;;;;;;;;;;;;19.91;39.94;100397.53;4515370;31;33984;-91
2022/10/17 03:15:43;;;;;;;;;;;;;;;19.90;39.82;100401.06;4507346;31;34323;-90
2022/10/17 03:18:11;;;;;;;;;;;;;;;19.73;40.18;100399.41;4513699;31;35338;-91
2022/10/17 03:20:38;;;;;;;;;;;;;;;19.93;39.55;100401.06;4515331;31;34078;-94
2022/10/17 03:23:05;;;;;;;;;;;;;;;19.72;39.79;100406.41;4514951;31;33473;-91
2022/10/17 03:25:33;;;;;;;;;;;;;;;19.74;39.98;100411.69;4513746;31;34377;-93
2022/10/17 03:28:00;;;;;;;;;;;;;;;19.77;39.91;100409.03;4508117;31;34535;-93
2022/10/17 03:30:28;;;;;;;;;;;;;;;19.51;40.44;100410.00;4513189;31;34175;-92
2022/10/17 03:32:58;;;;;;;;;;;;;;;19.41;40.67;100414.41;4515451;31;33076;-91
2022/10/17 03:35:26;;;;;;;;;;;;;;;19.51;40.43;100423.16;4512712;31;34738;-91
2022/10/17 03:37:54;;;;;;;;;;;;;;;19.60;40.32;100419.59;4515254;31;35137;-95
2022/10/17 03:40:21;;;;;;;;;;;;;;;19.60;40.27;100430.13;4503696;31;34087;-93
2022/10/17 03:42:48;;;;;;;;;;;;;;;19.62;40.31;100424.03;4514970;31;33149;-93
2022/10/17 03:45:15;;;;;;;;;;;;;;;19.60;40.22;100430.13;4513558;31;33120;-89
2022/10/17 03:47:43;;;;;;;;;;;;;;;19.59;40.21;100433.66;4512044;31;35059;-92
2022/10/17 03:50:11;;;;;;;;;;;;;;;19.64;40.13;100432.75;4513636;31;34513;-93
2022/10/17 03:52:38;;;;;;;;;;;;;;;19.52;40.44;100440.69;4515134;31;32949;-92
2022/10/17 03:55:05;;;;;;;;;;;;;;;19.51;40.63;100445.94;4512852;31;34611;-91
2022/10/17 03:57:34;;;;;;;;;;;;;;;19.54;40.64;100444.16;4514658;31;34023;-93
2022/10/17 04:00:03;;;;;;;;;;;;;;;19.64;40.33;100442.41;4510540;31;34390;-89
2022/10/17 04:02:40;;;;;;;;;;;;;;;19.62;40.45;100438.91;4513391;31;33511;-92
2022/10/17 04:05:08;;;;;;;;;;;;;;;19.66;40.65;100446.81;4514949;31;34411;-90
2022/10/17 04:07:36;;;;;;;;;;;;;;;19.59;40.77;100436.28;4513263;31;32511;-93
2022/10/17 04:10:04;;;;;;;;;;;;;;;19.59;40.78;100442.41;4512833;31;34317;-89
2022/10/17 04:12:31;;;;;;;;;;;;;;;19.64;40.64;100443.28;4515321;31;33470;-91
2022/10/17 04:14:59;;;;;;;;;;;;;;;19.49;40.94;100447.69;4515103;31;34335;-91
2022/10/17 04:17:26;;;;;;;;;;;;;;;19.49;41.04;100451.19;4513432;31;34217;-90
2022/10/17 04:19:53;;;;;;;;;;;;;;;19.57;40.95;100445.91;4504919;31;34333;-90
2022/10/17 04:22:21;;;;;;;;;;;;;;;19.52;41.22;100447.69;4510611;31;33937;-92
2022/10/17 04:24:48;;;;;;;;;;;;;;;19.59;41.06;100444.16;4513560;31;34560;-92
2022/10/17 04:27:17;;;;;;;;;;;;;;;19.47;41.38;100455.56;4515363;31;35288;-91
2022/10/17 04:29:44;;;;;;;;;;;;;;;19.58;41.14;100468.69;4511932;31;34140;-91
2022/10/17 04:32:11;;;;;;;;;;;;;;;19.57;40.94;100461.69;4514554;31;33200;-92
2022/10/17 04:34:39;;;;;;;;;;;;;;;19.46;41.16;100464.34;4514971;31;34261;-92
2022/10/17 04:37:06;;;;;;;;;;;;;;;19.10;42.08;100470.59;4513703;31;35239;-92
2022/10/17 04:39:34;;;;;;;;;;;;;;;19.31;41.84;100474.91;4507330;31;33360;-92
2022/10/17 04:42:02;;;;;;;;;;;;;;;19.07;42.36;100481.09;4514927;31;33417;-94
2022/10/17 04:44:30;;;;;;;;;;;;;;;19.07;42.48;100475.84;4505650;31;35524;-93
2022/10/17 04:46:57;;;;;;;;;;;;;;;19.32;41.79;100469.66;4506275;31;33784;-90
2022/10/17 04:49:25;;;;;;;;;;;;;;;19.50;41.22;100465.22;4514981;31;35337;-91
2022/10/17 04:51:52;;;;;;;;;;;;;;;19.58;40.85;100471.34;4515544;31;34353;-91
2022/10/17 04:54:20;;;;;;;;;;;;;;;19.34;41.28;100469.66;4515271;31;35022;-90
2022/10/17 04:56:48;;;;;;;;;;;;;;;19.32;41.35;100468.75;4515122;31;34283;-91
2022/10/17 04:59:15;;;;;;;;;;;;;;;19.44;41.11;100474.91;4512053;31;34891;-93
2022/10/17 05:01:42;;;;;;;;;;;;;;;19.40;41.16;100483.66;4511267;31;32979;-90
2022/10/17 05:04:10;;;;;;;;;;;;;;;19.27;41.67;100484.56;4514265;31;35092;-91
2022/10/17 05:06:38;;;;;;;;;;;;;;;19.23;41.68;100490.69;4512731;31;35068;-91
2022/10/17 05:09:05;;;;;;;;;;;;;;;18.93;42.25;100488.97;4513392;31;33797;-92
2022/10/17 05:11:33;;;;;;;;;;;;;;;19.22;41.83;100488.97;4514566;31;33428;-92
2022/10/17 05:14:01;;;;;;;;;;;;;;;19.50;40.93;100488.91;4513320;31;34344;-92
2022/10/17 05:16:28;;;;;;;;;;;;;;;19.17;41.47;100493.34;4514571;31;33973;-92
2022/10/17 05:18:56;;;;;;;;;;;;;;;18.83;42.40;100496.00;4504295;31;34270;-91
2022/10/17 05:21:26;;;;;;;;;;;;;;;18.87;42.61;100500.38;4492817;31;33883;-92
2022/10/17 05:23:53;;;;;;;;;;;;;;;19.01;42.29;100507.38;4510017;31;33691;-92
2022/10/17 05:26:21;;;;;;;;;;;;;;;19.18;41.72;100505.63;4483363;31;32290;-93
2022/10/17 05:28:51;;;;;;;;;;;;;;;19.15;41.49;100510.88;4492905;31;34188;-92
2022/10/17 05:31:19;;;;;;;;;;;;;;;19.20;41.49;100517.00;4496871;31;33320;-91
2022/10/17 05:33:46;;;;;;;;;;;;;;;19.22;41.63;100517.00;4485473;31;32730;-90
2022/10/17 05:36:14;;;;;;;;;;;;;;;19.36;41.11;100521.38;4492329;31;34241;-92
2022/10/17 05:38:41;;;;;;;;;;;;;;;19.06;41.78;100518.78;4499030;31;34385;-92
2022/10/17 05:41:09;;;;;;;;;;;;;;;19.14;41.80;100530.16;4485469;31;33789;-91
2022/10/17 05:43:36;;;;;;;;;;;;;;;19.02;42.20;100530.16;4489073;31;36271;-91
2022/10/17 05:46:04;;;;;;;;;;;;;;;19.01;42.07;100534.53;4481462;31;33698;-90
2022/10/17 05:48:32;;;;;;;;;;;;;;;18.76;42.66;100528.41;4499081;31;34294;-90
2022/10/17 05:51:08;;;;;;;;;;;;;;;18.66;43.32;100540.59;4471746;31;32442;-91
2022/10/17 05:53:37;;;;;;;;;;;;;;;18.41;44.12;100542.31;4484533;31;34196;-93
2022/10/17 05:56:06;;;;;;;;;;;;;;;18.72;43.23;100547.66;4498149;31;33496;-91
2022/10/17 05:58:34;;;;;;;;;;;;;;;18.75;43.17;100546.75;4472746;31;32893;-91
2022/10/17 06:01:23;;;;;;;;;;;;;;;18.83;42.80;100551.19;4485952;31;32686;-93
2022/10/17 06:03:50;;;;;;;;;;;;;;;18.90;42.75;100555.56;4486481;31;34763;-92
2022/10/17 06:06:18;;;;;;;;;;;;;;;18.71;43.01;100566.91;4481940;31;34019;-90
2022/10/17 06:08:45;;;;;;;;;;;;;;;18.99;42.29;100577.47;4486639;31;33036;-92
2022/10/17 06:11:13;;;;;;;;;;;;;;;18.68;43.17;100572.13;4486756;31;32580;-90
2022/10/17 06:13:40;;;;;;;;;;;;;;;19.13;42.34;100576.59;4498872;31;34252;-91
2022/10/17 06:16:08;;;;;;;;;;;;;;;18.78;42.94;100583.56;4488611;31;34120;-91
2022/10/17 06:18:36;;;;;;;;;;;;;;;19.18;42.26;100579.22;4492906;31;34509;-92
2022/10/17 06:21:04;;;;;;;;;;;;;;;19.04;42.52;100579.22;4503676;31;32937;-90
2022/10/17 06:23:31;;;;;;;;;;;;;;;18.88;43.07;100590.59;4513967;31;33894;-95
2022/10/17 06:25:59;;;;;;;;;;;;;;;18.91;42.95;100590.59;4512787;31;34082;-92
2022/10/17 06:28:28;;;;;;;;;;;;;;;18.98;42.98;100587.09;4473281;31;33524;-92
2022/10/17 06:30:55;;;;;;;;;;;;;;;19.10;42.85;100587.13;4492413;31;34263;-92
2022/10/17 06:33:23;;;;;;;;;;;;;;;19.11;42.95;100585.34;4471020;31;33732;-91
2022/10/17 06:35:55;;;;;;;;;;;;;;;19.24;42.79;100595.00;4497004;31;34252;-92
2022/10/17 06:38:22;;;;;;;;;;;;;;;19.06;43.27;100595.88;4470606;31;32888;-92
2022/10/17 06:40:52;;;;;;;;;;;;;;;19.53;42.34;100599.37;4471514;31;32358;-90
2022/10/17 06:43:19;;;;;;;;;;;;;;;18.98;43.54;100608.12;4494353;31;33537;-89
2022/10/17 06:45:54;;;;;;;;;;;;;;;19.40;42.68;100609.03;4502137;31;33512;-92
2022/10/17 06:48:28;;;;;;;;;;;;;;;19.26;43.35;100608.16;4502043;31;33101;-92
2022/10/17 06:50:57;;;;;;;;;;;;;;;19.51;42.90;100611.62;4501546;31;32585;-91
2022/10/17 06:53:27;;;;;;;;;;;;;;;19.44;42.80;100613.41;4488595;31;34081;-93
2022/10/17 06:56:01;;;;;;;;;;;;;;;19.59;42.71;100617.78;4489044;31;32676;-92
2022/10/17 06:58:31;;;;;;;;;;;;;;;19.34;42.79;100619.53;4488954;31;33116;-91
2022/10/17 07:00:59;;;;;;;;;;;;;;;19.50;42.40;100625.69;4501680;31;33798;-92
2022/10/17 07:03:27;;;;;;;;;;;;;;;19.61;41.77;100627.41;4501677;31;34241;-93
2022/10/17 07:05:55;;;;;;;;;;;;;;;19.65;40.17;100623.94;4501547;31;33510;-92
2022/10/17 07:08:23;;;;;;;;;;;;;;;19.78;41.36;100623.94;4501611;31;34505;-92
2022/10/17 07:10:50;;;;;;;;;;;;;;;19.49;40.62;100631.81;4487994;31;32916;-91
2022/10/17 07:13:18;;;;;;;;;;;;;;;19.89;40.74;100627.44;4488266;31;33063;-91
2022/10/17 07:15:45;;;;;;;;;;;;;;;19.38;42.46;100627.44;4501687;31;32864;-92
2022/10/17 07:18:13;;;;;;;;;;;;;;;19.49;41.18;100630.06;4501274;31;33855;-92
2022/10/17 07:20:40;;;;;;;;;;;;;;;19.89;39.91;100633.56;4514356;31;33210;-91
2022/10/17 07:23:08;;;;;;;;;;;;;;;18.69;40.98;100627.28;4514750;31;34290;-91
2022/10/17 07:25:36;;;;;;;;;;;;;;;19.02;41.71;100633.53;4501385;31;34834;-90
2022/10/17 07:28:06;;;;;;;;;;;;;;;18.47;41.66;100644.72;4489209;31;32754;-91
2022/10/17 07:30:34;;;;;;;;;;;;;;;18.45;41.55;100642.97;4501534;31;33075;-91
2022/10/17 07:33:01;;;;;;;;;;;;;;;18.66;41.55;100642.16;4514096;31;33698;-91
2022/10/17 07:35:30;;;;;;;;;;;;;;;19.47;40.24;100636.19;4501592;31;35173;-91
2022/10/17 07:37:57;;;;;;;;;;;;;;;19.03;40.68;100637.03;4501232;31;34082;-91
2022/10/17 07:40:25;;;;;;;;;;;;;;;19.87;39.29;100640.56;4514198;31;34071;-91
2022/10/17 07:42:54;;;;;;;;;;;;;;;19.32;40.52;100642.31;4514311;31;34243;-90
2022/10/17 07:45:26;;;;;;;;;;;;;;;19.55;40.25;100644.97;4514285;31;32910;-91
2022/10/17 07:47:56;;;;;;;;;;;;;;;19.61;39.96;100643.19;4501108;31;33524;-92
2022/10/17 07:50:24;;;;;;;;;;;;;;;20.00;40.08;100645.81;4501362;31;32712;-91
2022/10/17 07:52:51;;;;;;;;;;;;;;;20.21;39.43;100645.78;4487830;31;34161;-91
2022/10/17 07:55:18;;;;;;;;;;;;;;;19.15;40.75;100650.19;4500904;31;34977;-90
2022/10/17 07:57:46;;;;;;;;;;;;;;;19.26;39.81;100652.84;4514355;31;32774;-93
2022/10/17 08:00:13;;;;;;;;;;;;;;;19.65;39.37;100649.38;4501047;31;34136;-92
2022/10/17 08:02:40;;;;;;;;;;;;;;;20.47;38.93;100644.81;4487921;31;34559;-91
2022/10/17 08:05:07;;;;;;;;;;;;;;;20.30;38.68;100647.50;4501063;31;34144;-92
2022/10/17 08:07:35;;;;;;;;;;;;;;;20.59;37.81;100648.28;4500920;31;33140;-92
2022/10/17 08:10:02;;;;;;;;;;;;;;;21.07;37.72;100653.31;4500959;31;32636;-91
2022/10/17 08:12:33;;;;;;;;;;;;;;;20.18;38.54;100661.56;4514084;31;34048;-92
2022/10/17 08:15:00;;;;;;;;;;;;;;;19.86;39.25;100664.28;4501660;31;35164;-92
2022/10/17 08:17:28;;;;;;;;;;;;;;;20.84;37.82;100653.47;4500928;31;33562;-91
2022/10/17 08:19:55;;;;;;;;;;;;;;;21.25;37.01;100663.75;4500971;31;33920;-92
2022/10/17 08:22:22;;;;;;;;;;;;;;;20.94;37.10;100660.41;4500642;31;33196;-93
2022/10/17 08:24:49;;;;;;;;;;;;;;;20.54;37.07;100660.63;4487660;31;33901;-91
2022/10/17 08:27:22;;;;;;;;;;;;;;;20.86;37.01;100660.44;4487775;31;34192;-92
2022/10/17 08:29:53;;;;;;;;;;;;;;;21.01;38.07;100663.87;4514357;31;32911;-92
2022/10/17 08:32:20;;;;;;;;;;;;;;;21.28;37.91;100666.34;4488027;31;33545;-91
2022/10/17 08:34:47;;;;;;;;;;;;;;;19.89;38.06;100675.69;4501075;31;32934;-92
2022/10/17 08:37:15;;;;;;;;;;;;;;;21.27;36.85;100661.09;4500468;31;34353;-92
2022/10/17 08:39:42;;;;;;;;;;;;;;;20.75;36.58;100667.53;4487929;31;33613;-92
2022/10/17 08:42:26;;;;;;;;;;;;;;;21.08;37.92;100665.59;4487890;31;33587;-91
2022/10/17 08:45:13;;;;;;;;;;;;;;;21.35;35.27;100661.94;4462048;31;867285;-92
2022/10/17 08:47:44;;;;;;;;;;;;;;;21.38;35.42;100665.44;4513718;31;33852;-92
2022/10/17 08:50:14;;;;;;;;;;;;;;;21.17;36.76;100668.16;4500773;31;32775;-91
2022/10/17 08:52:44;;;;;;;;;;;;;;;21.85;34.57;100666.78;4513910;31;33774;-91
2022/10/17 08:55:13;;;;;;;;;;;;;;;22.27;34.35;100661.09;4513890;31;33949;-90
2022/10/17 08:57:41;;;;;;;;;;;;;;;21.06;36.31;100663.00;4500726;31;34245;-90
2022/10/17 09:00:18;;;;;;;;;;;;;;;21.45;35.84;100668.91;4514145;31;33312;-91
2022/10/17 09:02:45;;;;;;;;;;;;;;;21.09;36.09;100667.34;4513636;31;34769;-91
2022/10/17 09:05:31;;;;;;;;;;;;;;;21.73;35.76;100669.53;4514551;31;33901;-91
2022/10/17 09:08:01;;;;;;;;;;;;;;;22.19;35.57;100666.47;4514992;31;34971;-91
2022/10/17 09:10:47;;;;;;;;;;;;;;;21.76;35.32;100663.34;4513811;31;33160;-92
2022/10/17 09:13:29;;;;;;;;;;;;;;;22.08;36.14;100673.59;4514816;31;35180;-91
2022/10/17 09:16:01;;;;;;;;;;;;;;;22.18;35.53;100672.66;4514920;31;34207;-91
2022/10/17 09:18:30;;;;;;;;;;;;;;;22.44;34.45;100667.06;4514759;31;34191;-90
2022/10/17 09:20:59;;;;;;;;;;;;;;;22.35;34.73;100661.91;4513412;31;33127;-91
2022/10/17 09:23:27;;;;;;;;;;;;;;;21.60;35.41;100667.91;4513553;31;34458;-89
2022/10/17 09:25:57;;;;;;;;;;;;;;;20.91;36.30;100671.00;4513810;31;35124;-91
2022/10/17 09:28:26;;;;;;;;;;;;;;;21.19;35.70;100669.06;4514657;31;33838;-90
2022/10/17 09:30:59;;;;;;;;;;;;;;;21.77;35.36;100670.38;4513467;31;33340;-91
2022/10/17 09:33:40;;;;;;;;;;;;;;;21.38;36.00;100672.47;4514464;31;34781;-91
2022/10/17 09:36:27;;;;;;;;;;;;;;;21.82;35.83;100672.09;4513252;31;34242;-91
2022/10/17 09:39:05;;;;;;;;;;;;;;;21.56;36.72;100667.06;4513312;31;34342;-91
2022/10/17 09:41:36;;;;;;;;;;;;;;;22.29;35.05;100665.47;4513189;31;33334;-92
2022/10/17 09:44:27;;;;;;;;;;;;;;;22.62;35.96;100667.75;4513633;31;33727;-92
2022/10/17 09:46:54;;;;;;;;;;;;;;;21.05;36.70;100678.81;4513317;31;34692;-90
2022/10/17 09:49:24;;;;;;;;;;;;;;;21.83;35.91;100675.62;4512796;31;33569;-91
2022/10/17 09:51:52;;;;;;;;;;;;;;;22.36;34.62;100673.34;4487064;31;32615;-91
2022/10/17 09:54:21;;;;;;;;;;;;;;;21.79;35.03;100668.63;4513023;31;35233;-92
2022/10/17 09:56:57;;;;;;;;;;;;;;;21.05;36.91;100671.75;4487020;31;33308;-90
2022/10/17 09:59:54;;;;;;;;;;;;;;;21.35;36.42;100676.00;4512808;31;33564;-92
2022/10/17 10:02:22;;;;;;;;;;;;;;;22.00;34.39;100667.53;4496412;31;33205;-92
2022/10/17 10:04:52;;;;;;;;;;;;;;;21.96;35.32;100666.66;4512858;31;33956;-92
2022/10/17 10:07:35;;;;;;;;;;;;;;;21.42;35.50;100668.91;4501010;31;33120;-91
2022/10/17 10:10:04;;;;;;;;;;;;;;;22.89;33.34;100661.22;4512679;31;34151;-91
2022/10/17 10:12:33;;;;;;;;;;;;;;;22.70;33.48;100663.25;4499771;31;32368;-91
2022/10/17 10:15:00;;;;;;;;;;;;;;;21.94;34.28;100667.59;4499611;31;33276;-91
2022/10/17 10:17:35;;;;;;;;;;;;;;;22.42;34.48;100657.41;4488347;31;33699;-91
2022/10/17 10:20:23;;;;;;;;;;;;;;;23.09;33.73;100664.47;4515093;31;33788;-92
2022/10/17 10:23:08;;;;;;;;;;;;;;;23.12;32.67;100663.56;4501968;31;33462;-91
2022/10/17 10:25:35;;;;;;;;;;;;;;;23.22;33.45;100667.81;4501845;31;32721;-92
2022/10/17 10:28:08;;;;;;;;;;;;;;;22.90;33.35;100660.31;4501603;31;34140;-91
2022/10/17 10:30:35;;;;;;;;;;;;;;;22.16;34.16;100663.87;4501864;31;33599;-91
2022/10/17 10:33:09;;;;;;;;;;;;;;;22.18;34.34;100663.84;4502195;31;32072;-91
2022/10/17 10:35:36;;;;;;;;;;;;;;;22.39;34.31;100660.06;4501860;31;33771;-91
2022/10/17 10:38:07;;;;;;;;;;;;;;;21.14;34.56;100669.09;4501891;31;33773;-91
2022/10/17 10:40:43;;;;;;;;;;;;;;;21.93;34.16;100649.97;4488665;31;34278;-91
2022/10/17 10:43:19;;;;;;;;;;;;;;;21.56;34.50;100661.78;4501689;31;34226;-92
2022/10/17 10:45:46;;;;;;;;;;;;;;;23.14;32.98;100651.16;4514657;31;34175;-94
2022/10/17 10:48:20;;;;;;;;;;;;;;;22.64;32.71;100650.09;4488620;31;32922;-91
2022/10/17 10:50:54;;;;;;;;;;;;;;;22.59;34.10;100650.16;4501663;31;34876;-93
2022/10/17 10:53:24;;;;;;;;;;;;;;;23.66;31.92;100645.94;4514777;31;33180;-91
2022/10/17 10:55:53;;;;;;;;;;;;;;;23.02;32.28;100650.47;4488794;31;33837;-92
2022/10/17 10:58:30;;;;;;;;;;;;;;;23.08;33.00;100648.62;4501471;31;33346;-92
2022/10/17 11:00:59;;;;;;;;;;;;;;;23.61;32.91;100647.78;4514408;31;34462;-94
2022/10/17 11:03:48;;;;;;;;;;;;;;;23.26;31.56;100646.59;4501747;31;32232;-91
2022/10/17 11:06:19;;;;;;;;;;;;;;;23.08;32.54;100643.34;4476041;31;34997;-92
2022/10/17 11:09:04;;;;;;;;;;;;;;;24.00;31.19;100643.56;4488797;31;33235;-91
2022/10/17 11:11:37;;;;;;;;;;;;;;;24.17;31.41;100632.66;4488647;31;33323;-92
2022/10/17 11:14:10;;;;;;;;;;;;;;;23.91;31.10;100638.44;4502092;31;33731;-93
2022/10/17 11:16:45;;;;;;;;;;;;;;;23.92;31.61;100634.88;4488308;31;33922;-90
2022/10/17 11:19:14;;;;;;;;;;;;;;;24.34;30.61;100637.59;4501527;31;33533;-92
2022/10/17 11:22:01;;;;;;;;;;;;;;;23.17;32.21;100636.13;4501367;31;34164;-91
2022/10/17 11:24:39;;;;;;;;;;;;;;;23.38;31.94;100634.94;4501426;31;32303;-92
2022/10/17 11:27:07;;;;;;;;;;;;;;;23.38;31.25;100636.72;4501118;31;32814;-92
2022/10/17 11:29:35;;;;;;;;;;;;;;;23.18;31.92;100634.34;4501319;31;33377;-92
2022/10/17 11:32:04;;;;;;;;;;;;;;;23.93;30.60;100630.47;4501242;31;34215;-92
2022/10/17 11:34:34;;;;;;;;;;;;;;;23.77;30.72;100643.13;4501420;31;32699;-92
2022/10/17 11:37:03;;;;;;;;;;;;;;;23.58;32.05;100626.63;4501295;31;34308;-93
2022/10/17 11:39:30;;;;;;;;;;;;;;;23.61;32.21;100634.53;4487476;31;33453;-93
2022/10/17 11:42:02;;;;;;;;;;;;;;;23.65;31.50;100627.41;4500920;31;34345;-94
2022/10/17 11:44:35;;;;;;;;;;;;;;;24.30;32.28;100622.66;4501358;31;33791;-93
2022/10/17 11:47:21;;;;;;;;;;;;;;;24.86;30.99;100614.44;4488113;31;33444;-91
2022/10/17 11:50:06;;;;;;;;;;;;;;;24.13;30.61;100609.78;4501222;31;34220;-92
2022/10/17 11:53:09;;;;;;;;;;;;;;;24.21;30.68;100609.63;4503554;31;34292;-93
2022/10/17 11:55:37;;;;;;;;;;;;;;;24.50;31.98;100606.37;4501053;31;33450;-93
2022/10/17 11:58:23;;;;;;;;;;;;;;;24.82;30.83;100610.97;4488095;31;33637;-92
2022/10/17 12:01:00;;;;;;;;;;;;;;;24.81;29.71;100606.56;4500749;31;33040;-92
2022/10/17 12:03:30;;;;;;;;;;;;;;;25.09;29.52;100611.25;4488196;31;32858;-93
2022/10/17 12:06:16;;;;;;;;;;;;;;;25.23;28.98;100607.38;4515651;31;33866;-93
2022/10/17 12:08:46;;;;;;;;;;;;;;;24.36;29.97;100608.41;4488518;31;33016;-92
2022/10/17 12:11:20;;;;;;;;;;;;;;;23.68;30.20;100606.22;4487848;31;34513;-94
2022/10/17 12:13:50;;;;;;;;;;;;;;;24.46;29.58;100602.91;4487969;31;33252;-92
2022/10/17 12:16:17;;;;;;;;;;;;;;;24.24;29.85;100607.78;4501161;31;33526;-92
2022/10/17 12:18:45;;;;;;;;;;;;;;;24.02;30.51;100604.69;4500964;31;33283;-93
2022/10/17 12:21:12;;;;;;;;;;;;;;;23.67;31.27;100599.16;4487969;31;34752;-93
2022/10/17 12:23:40;;;;;;;;;;;;;;;25.08;30.49;100590.91;4487708;31;33455;-92
2022/10/17 12:26:08;;;;;;;;;;;;;;;24.36;31.09;100598.69;4501301;31;34339;-92
2022/10/17 12:28:38;;;;;;;;;;;;;;;25.00;29.24;100594.62;4488404;31;34230;-93
2022/10/17 12:31:14;;;;;;;;;;;;;;;24.88;29.50;100591.38;4514017;31;33262;-93
2022/10/17 12:33:45;;;;;;;;;;;;;;;25.18;29.54;100582.72;4514213;31;34839;-93
2022/10/17 12:36:15;;;;;;;;;;;;;;;25.18;29.17;100581.84;4500670;31;32448;-92
2022/10/17 12:39:12;;;;;;;;;;;;;;;24.14;30.99;100582.38;4499941;31;33430;-93
2022/10/17 12:41:39;;;;;;;;;;;;;;;24.62;30.16;100574.28;4485501;31;34467;-91
2022/10/17 12:44:13;;;;;;;;;;;;;;;24.33;30.37;100577.56;4515458;31;34845;-92
2022/10/17 12:46:56;;;;;;;;;;;;;;;24.54;30.33;100573.56;4500914;31;32172;-93
2022/10/17 12:49:40;;;;;;;;;;;;;;;25.06;29.86;100576.81;4500889;31;32829;-91
2022/10/17 12:52:13;;;;;;;;;;;;;;;24.51;30.66;100573.66;4500775;31;34053;-92
2022/10/17 12:54:45;;;;;;;;;;;;;;;24.74;30.07;100578.47;4500732;31;32873;-92